Time;durP1;ratioP1;P1;durP2;ratioP2;P2;SDS_P1;SDS_P2;PMS_P1;PMS_P2;Temp;Humidity;BMP_temperature;BMP_pressure;BME280_temperature;BME280_humidity;BME280_pressure;Samples;Min_cycle;Max_cycle;Signal;HPM_P1;HPM_P2
2022/09/11 00:05:16;;;;;;;15.93;13.33;;;18.50;99.90;;;;;;4875772;29;20582;-91
2022/09/11 00:08:22;;;;;;;;;;;;;;;;;;;;;
2022/09/11 00:18:46;;;;;;;21.50;16.90;;;18.20;99.90;;;;;;4877487;29;20306;-91
2022/09/11 00:25:19;;;;;;;;;;;;;;;;;;;;;
2022/09/11 00:32:11;;;;;;;25.87;20.20;;;17.80;99.90;;;;;;4860017;29;20223;-90
2022/09/11 00:35:38;;;;;;;;;;;;;;;;;;;;;
2022/09/11 00:38:34;;;;;;;25.03;20.27;;;17.60;99.90;;;;;;4868516;29;20195;-90
2022/09/11 00:42:06;;;;;;;26.43;20.43;;;17.60;99.90;;;;;;4880109;29;20180;-91
2022/09/11 00:45:18;;;;;;;;;;;;;;;;;;;;;
2022/09/11 00:49:00;;;;;;;;;;;;;;;;;;;;;
2022/09/11 00:52:25;;;;;;;23.03;20.00;;;17.50;99.90;;;;;;4880780;29;20262;-89
2022/09/11 00:55:41;;;;;;;;;;;;;;;;;;;;;
2022/09/11 00:59:20;;;;;;;22.67;18.73;;;17.60;99.90;;;;;;4881155;29;20240;-90
2022/09/11 01:02:33;;;;;;;21.20;18.27;;;17.70;99.90;;;;;;4829574;29;20188;-90
2022/09/11 01:12:35;;;;;;;20.47;17.73;;;17.70;99.90;;;;;;4867676;29;20244;-90
2022/09/11 01:15:53;;;;;;;19.53;17.37;;;17.80;99.90;;;;;;4859821;29;20212;-91
2022/09/11 01:19:07;;;;;;;21.57;18.37;;;17.90;99.90;;;;;;4874665;29;20209;-91
2022/09/11 01:22:34;;;;;;;20.80;17.30;;;17.90;99.90;;;;;;4880786;29;20207;-90
2022/09/11 01:32:54;;;;;;;;;;;;;;;;;;;;;
2022/09/11 01:39:45;;;;;;;21.60;17.27;;;17.40;99.90;;;;;;4914824;29;20177;-90
2022/09/11 01:43:01;;;;;;;;;;;;;;;;;;;;;
2022/09/11 02:23:34;;;;;;;21.40;18.43;;;17.60;99.90;;;;;;4923388;29;20175;-91
2022/09/11 02:26:41;;;;;;;26.23;19.23;;;17.60;99.90;;;;;;4866128;29;20186;-92
2022/09/11 02:36:54;;;;;;;;;;;;;;;;;;;;;
2022/09/11 03:27:30;;;;;;;;;;;;;;;;;;;;;
2022/09/11 03:31:01;;;;;;;29.53;21.33;;;16.20;99.90;;;;;;4922763;29;20244;-92
2022/09/11 04:08:36;;;;;;;;;;;;;;;;;;;;;
2022/09/11 04:25:21;;;;;;;83.77;25.97;;;16.20;99.90;;;;;;4902704;28;20206;-91
2022/09/11 08:27:15;;;;;;;;;;;;;;;;;;;;;
2022/09/11 08:58:13;;;;;;;;;;;;;;;;;;;;;
2022/09/11 09:11:47;;;;;;;37.70;33.43;;;18.90;99.20;;;;;;4921194;29;20188;-92
2022/09/11 09:29:22;;;;;;;44.00;36.97;;;18.70;99.90;;;;;;4881253;29;20209;-92
2022/09/11 09:32:06;;;;;;;42.50;36.63;;;18.60;99.90;;;;;;4898856;29;20281;-91
2022/09/11 09:39:00;;;;;;;;;;;;;;;;;;;;;
2022/09/11 09:53:26;;;;;;;42.70;36.43;;;18.90;99.90;;;;;;4771681;30;20267;-91
2022/09/11 10:13:35;;;;;;;35.53;31.77;;;19.80;94.80;;;;;;4788500;30;20228;-93
2022/09/11 10:16:42;;;;;;;36.87;32.97;;;19.90;95.80;;;;;;4786907;30;20710;-93
2022/09/11 10:19:42;;;;;;;35.20;31.33;;;19.90;94.90;;;;;;4807539;29;20231;-92
2022/09/11 10:25:44;;;;;;;34.27;30.97;;;20.20;92.60;;;;;;4864860;29;20245;-93
2022/09/11 10:28:46;;;;;;;34.43;30.93;;;20.10;91.80;;;;;;4937459;29;20219;-93
2022/09/11 10:31:32;;;;;;;32.87;29.60;;;20.30;91.60;;;;;;4995759;28;20222;-92
2022/09/11 10:38:36;;;;;;;31.70;28.40;;;20.70;87.90;;;;;;5018247;28;20338;-93
2022/09/11 10:41:59;;;;;;;;;;;;;;;;;;;;;
2022/09/11 11:09:07;;;;;;;19.20;17.27;;;22.10;51.40;;;;;;4927119;29;20279;-93
2022/09/11 11:12:20;;;;;;;17.77;15.97;;;22.40;44.80;;;;;;4919353;29;20221;-93
2022/09/11 11:15:42;;;;;;;17.20;15.53;;;22.40;45.60;;;;;;4900115;29;20293;-93
2022/09/11 11:22:54;;;;;;;;;;;;;;;;;;;;;
2022/09/11 11:33:16;;;;;;;;;;;;;;;;;;;;;
2022/09/11 11:40:07;;;;;;;15.30;13.70;;;22.70;6.10;;;;;;4803989;29;20299;-93
2022/09/11 11:43:30;;;;;;;;;;;;;;;;;;;;;
2022/09/11 11:49:53;;;;;;;13.30;12.00;;;23.10;1.00;;;;;;4885420;29;20209;-93
2022/09/11 11:53:42;;;;;;;;;;;;;;;;;;;;;
2022/09/11 12:00:25;;;;;;;13.27;11.97;;;23.20;1.00;;;;;;4911923;29;20244;-93
2022/09/11 12:03:37;;;;;;;11.97;10.37;;;23.30;1.00;;;;;;4905150;29;20186;-92
2022/09/11 12:17:48;;;;;;;10.33;9.07;;;23.90;1.00;;;;;;4904509;29;20213;-92
2022/09/11 12:31:49;;;;;;;8.20;7.40;;;23.70;1.00;;;;;;4880268;29;20174;-91
2022/09/11 12:34:55;;;;;;;9.50;7.87;;;23.70;1.00;;;;;;4882726;29;20218;-91
2022/09/11 12:41:56;;;;;;;;;;;;;;;;;;;;;
2022/09/11 13:13:04;;;;;;;8.07;5.97;;;23.30;1.00;;;;;;4918444;29;20213;-94
2022/09/11 13:16:43;;;;;;;10.23;7.53;;;23.60;1.00;;;;;;4904711;29;20268;-94
2022/09/11 13:39:36;;;;;;;6.97;5.60;;;23.50;1.00;;;;;;4956124;29;20212;-93
2022/09/11 13:49:33;;;;;;;6.27;5.67;;;23.80;1.00;;;;;;5020160;28;20206;-94
2022/09/11 13:59:46;;;;;;;5.23;4.70;;;23.40;1.00;;;;;;4979134;28;20220;-91
2022/09/11 14:06:31;;;;;;;;;;;;;;;;;;;;;
2022/09/11 14:09:34;;;;;;;4.40;4.00;;;24.00;1.00;;;;;;4962129;29;20260;-91
2022/09/11 14:12:43;;;;;;;;;;;;;;;;;;;;;
2022/09/11 14:19:21;;;;;;;6.40;5.50;;;24.60;1.00;;;;;;4957520;29;20164;-90
2022/09/11 14:22:44;;;;;;;7.00;6.30;;;24.70;1.00;;;;;;4956770;29;20188;-91
2022/09/11 14:28:41;;;;;;;4.37;3.80;;;25.10;1.00;;;;;;4973972;28;20182;-92
2022/09/11 14:39:04;;;;;;;5.17;4.10;;;25.30;99.90;;;;;;4914433;29;20193;-92
2022/09/11 14:41:31;;;;;;;4.67;3.40;;;25.50;99.90;;;;;;4917457;29;20178;-92
2022/09/11 14:43:57;;;;;;;4.97;3.50;;;25.80;99.90;;;;;;4925948;28;20192;-92
2022/09/11 14:46:23;;;;;;;6.30;4.40;;;25.80;74.60;;;;;;4999954;28;20272;-89
2022/09/11 14:48:50;;;;;;;4.73;3.90;;;25.90;22.60;;;;;;4998351;28;20190;-91
2022/09/11 14:51:16;;;;;;;4.83;4.30;;;26.00;1.00;;;;;;4998984;28;20178;-90
2022/09/11 14:53:41;;;;;;;4.53;3.80;;;26.30;1.00;;;;;;4999940;28;20194;-91
2022/09/11 14:56:08;;;;;;;4.77;3.53;;;26.40;1.00;;;;;;4983844;28;20228;-91
2022/09/11 14:58:34;;;;;;;5.45;3.63;;;26.30;99.90;;;;;;4999996;28;20677;-90
2022/09/11 15:01:00;;;;;;;4.15;3.08;;;26.40;15.30;;;;;;5000226;28;20248;-91
2022/09/11 15:03:28;;;;;;;4.67;3.70;;;26.30;1.00;;;;;;4999343;28;20284;-91
2022/09/11 15:05:56;;;;;;;4.47;2.87;;;26.40;99.90;;;;;;5003997;28;20259;-90
2022/09/11 15:08:23;;;;;;;4.03;3.00;;;26.60;99.90;;;;;;5003391;28;20269;-92
2022/09/11 15:10:54;;;;;;;3.70;2.92;;;26.80;1.00;;;;;;5002281;28;20183;-91
2022/09/11 15:13:21;;;;;;;3.58;2.92;;;26.80;99.90;;;;;;5002930;28;20304;-90
2022/09/11 15:15:47;;;;;;;3.58;3.28;;;27.00;99.90;;;;;;5001594;28;20197;-92
2022/09/11 15:18:13;;;;;;;4.65;2.97;;;26.90;1.00;;;;;;5001224;28;20182;-91
2022/09/11 15:20:38;;;;;;;5.93;4.10;;;27.00;1.00;;;;;;5002520;28;20565;-90
2022/09/11 15:23:05;;;;;;;6.53;3.58;;;26.90;1.00;;;;;;5003487;28;20190;-90
2022/09/11 15:25:31;;;;;;;4.35;3.60;;;26.80;99.90;;;;;;5001570;28;20662;-91
2022/09/11 15:27:57;;;;;;;4.35;3.20;;;26.90;99.90;;;;;;5002733;28;20190;-91
2022/09/11 15:30:36;;;;;;;3.53;2.90;;;27.10;1.00;;;;;;5006208;28;20193;-91
2022/09/11 15:33:08;;;;;;;3.83;2.97;;;27.30;99.90;;;;;;5003548;28;20308;-92
2022/09/11 15:35:34;;;;;;;4.07;3.10;;;27.50;99.90;;;;;;5004723;28;20179;-91
2022/09/11 15:38:04;;;;;;;4.25;3.10;;;27.60;99.90;;;;;;5018981;28;20287;-90
2022/09/11 15:40:29;;;;;;;3.33;2.90;;;27.70;1.00;;;;;;5003476;28;20183;-91
2022/09/11 15:42:57;;;;;;;2.88;2.40;;;27.70;5.60;;;;;;5003936;28;20201;-91
2022/09/11 15:45:22;;;;;;;3.13;2.55;;;27.90;1.00;;;;;;5004586;28;20174;-92
2022/09/11 15:47:48;;;;;;;5.95;2.95;;;27.90;1.00;;;;;;5000700;28;20190;-90
2022/09/11 15:50:20;;;;;;;3.33;2.53;;;28.00;99.90;;;;;;5002802;28;20208;-92
2022/09/11 15:52:45;;;;;;;4.35;2.20;;;27.80;99.90;;;;;;5002469;28;20230;-92
2022/09/11 15:55:11;;;;;;;4.00;2.55;;;27.30;1.00;;;;;;5007090;28;20209;-90
2022/09/11 15:57:38;;;;;;;3.05;2.35;;;27.30;1.00;;;;;;5003799;28;20270;-92
2022/09/11 16:00:04;;;;;;;4.75;2.33;;;27.50;1.00;;;;;;5009663;28;20179;-90
2022/09/11 16:02:29;;;;;;;3.92;2.33;;;27.40;1.00;;;;;;5015059;28;20184;-90
2022/09/11 16:04:55;;;;;;;3.38;2.22;;;27.40;1.00;;;;;;5019700;28;20158;-91
2022/09/11 16:07:27;;;;;;;3.42;2.20;;;27.90;2.50;;;;;;5020469;28;20185;-91
2022/09/11 16:09:55;;;;;;;2.60;1.98;;;28.50;99.90;;;;;;5036516;28;20209;-91
2022/09/11 16:12:20;;;;;;;3.08;2.40;;;29.20;99.90;;;;;;5002937;28;20314;-92
2022/09/11 16:14:47;;;;;;;3.67;2.42;;;30.20;99.90;;;;;;5000712;28;20638;-90
2022/09/11 16:17:18;;;;;;;2.78;1.98;;;31.20;1.00;;;;;;5023869;28;20212;-91
2022/09/11 16:19:44;;;;;;;3.75;1.80;;;32.40;99.90;;;;;;5013971;28;20166;-90
2022/09/11 16:22:10;;;;;;;2.72;1.55;;;33.40;1.00;;;;;;5020312;28;20206;-90
2022/09/11 16:24:36;;;;;;;3.47;2.00;;;33.80;99.90;;;;;;5020527;28;20202;-90
2022/09/11 16:27:04;;;;;;;2.85;1.55;;;34.60;99.90;;;;;;5023455;28;20193;-91
2022/09/11 16:29:31;;;;;;;1.83;1.30;;;34.70;1.00;;;;;;5021354;28;20186;-92
2022/09/11 16:31:59;;;;;;;1.63;1.27;;;34.90;1.00;;;;;;5018255;28;20228;-92
2022/09/11 16:34:30;;;;;;;3.08;1.30;;;34.60;1.00;;;;;;5035341;28;20185;-92
2022/09/11 16:36:57;;;;;;;2.20;1.45;;;34.40;1.00;;;;;;5016723;28;20188;-92
2022/09/11 16:39:24;;;;;;;2.22;1.30;;;34.30;1.00;;;;;;5021715;28;20178;-91
2022/09/11 16:41:50;;;;;;;2.08;1.60;;;34.10;99.90;;;;;;5022296;28;20183;-90
2022/09/11 16:44:16;;;;;;;2.58;1.55;;;34.10;99.90;;;;;;5013585;28;20233;-90
2022/09/11 16:46:44;;;;;;;1.98;1.58;;;34.10;99.90;;;;;;5014932;28;20182;-90
2022/09/11 16:49:16;;;;;;;2.45;1.50;;;34.60;99.90;;;;;;5035889;28;20197;-90
2022/09/11 16:51:43;;;;;;;2.97;1.67;;;35.40;99.90;;;;;;5022936;28;20277;-91
2022/09/11 16:54:10;;;;;;;2.45;1.90;;;35.90;99.90;;;;;;5023636;28;20194;-90
2022/09/11 16:56:37;;;;;;;2.95;2.13;;;36.20;99.90;;;;;;5039133;28;20166;-90
2022/09/11 16:59:03;;;;;;;2.53;1.83;;;35.80;99.90;;;;;;5021332;28;20178;-91
2022/09/11 17:01:29;;;;;;;3.65;1.90;;;35.20;99.90;;;;;;5021337;28;20242;-90
2022/09/11 17:04:16;;;;;;;3.95;1.70;;;34.20;99.90;;;;;;5022918;28;20162;-92
2022/09/11 17:06:43;;;;;;;2.00;1.50;;;33.10;99.90;;;;;;5013996;28;20186;-90
2022/09/11 17:09:17;;;;;;;2.20;1.58;;;32.10;99.90;;;;;;5018007;28;20190;-92
2022/09/11 17:11:44;;;;;;;2.60;1.50;;;31.50;99.90;;;;;;5022123;28;20209;-91
2022/09/11 17:14:10;;;;;;;3.63;1.80;;;31.20;99.90;;;;;;5021358;28;20182;-92
2022/09/11 17:16:38;;;;;;;3.25;1.80;;;30.60;1.00;;;;;;5021516;28;20178;-90
2022/09/11 17:19:06;;;;;;;2.45;1.63;;;30.20;1.00;;;;;;5020892;28;20174;-90
2022/09/11 17:21:34;;;;;;;3.45;1.70;;;30.00;99.90;;;;;;5019623;28;20174;-91
2022/09/11 17:24:01;;;;;;;2.22;1.40;;;30.00;99.90;;;;;;5022921;28;20194;-91
2022/09/11 17:26:28;;;;;;;3.05;1.35;;;30.10;1.00;;;;;;5038910;28;20199;-90
2022/09/11 17:28:54;;;;;;;3.72;1.95;;;30.40;1.00;;;;;;5039239;28;20201;-89
2022/09/11 17:31:20;;;;;;;2.88;1.90;;;30.80;1.00;;;;;;5038903;28;20187;-90
2022/09/11 17:33:47;;;;;;;4.07;2.10;;;31.10;1.00;;;;;;5039109;28;20190;-90
2022/09/11 17:36:20;;;;;;;3.10;1.83;;;31.00;1.00;;;;;;5018646;28;20175;-90
2022/09/11 17:38:48;;;;;;;5.00;2.08;;;30.70;1.00;;;;;;5030978;28;20198;-92
2022/09/11 17:41:19;;;;;;;4.88;2.30;;;30.00;1.00;;;;;;5017227;28;20189;-92
2022/09/11 17:43:45;;;;;;;4.50;2.60;;;29.60;1.00;;;;;;5018082;28;20205;-91
2022/09/11 17:46:13;;;;;;;4.75;2.70;;;29.10;99.90;;;;;;5015900;28;20191;-91
2022/09/11 17:48:40;;;;;;;4.47;3.00;;;28.50;1.00;;;;;;5017284;28;20194;-90
2022/09/11 17:51:09;;;;;;;3.47;2.38;;;28.10;30.30;;;;;;5021534;28;20191;-90
2022/09/11 17:53:38;;;;;;;4.43;2.60;;;27.70;99.90;;;;;;5020380;28;20201;-90
2022/09/11 17:56:08;;;;;;;4.05;2.50;;;27.30;1.00;;;;;;5016692;28;20202;-91
2022/09/11 17:58:34;;;;;;;3.78;2.67;;;27.00;1.00;;;;;;5020146;28;20331;-93
2022/09/11 18:01:03;;;;;;;4.72;2.85;;;26.40;1.00;;;;;;5035646;28;20221;-91
2022/09/11 18:03:32;;;;;;;4.43;3.00;;;25.80;99.90;;;;;;5016665;28;20209;-90
2022/09/11 18:05:59;;;;;;;4.55;3.53;;;25.50;99.90;;;;;;5017379;28;20188;-91
2022/09/11 18:08:25;;;;;;;4.13;3.63;;;24.80;99.90;;;;;;5018703;28;20209;-88
2022/09/11 18:10:53;;;;;;;4.28;3.05;;;24.50;99.90;;;;;;5016744;28;20190;-92
2022/09/11 18:13:22;;;;;;;4.67;3.53;;;24.30;99.90;;;;;;5031029;28;20222;-90
2022/09/11 18:15:49;;;;;;;3.70;3.30;;;24.10;1.00;;;;;;5013881;28;20201;-90
2022/09/11 18:18:16;;;;;;;4.40;4.00;;;24.10;1.00;;;;;;5033774;28;20162;-89
2022/09/11 18:20:45;;;;;;;5.10;4.03;;;24.10;1.00;;;;;;5012871;28;20201;-88
2022/09/11 18:23:15;;;;;;;8.20;4.60;;;24.10;1.00;;;;;;5014593;28;20202;-87
2022/09/11 18:25:41;;;;;;;5.87;4.57;;;24.20;1.00;;;;;;5030226;28;20190;-89
2022/09/11 18:28:10;;;;;;;9.80;4.63;;;24.10;1.00;;;;;;4999902;28;20191;-90
2022/09/11 18:30:39;;;;;;;7.83;4.60;;;24.00;1.00;;;;;;5021938;28;20552;-92
2022/09/11 18:33:08;;;;;;;5.23;4.33;;;24.00;1.00;;;;;;5020143;28;20221;-90
2022/09/11 18:35:33;;;;;;;8.07;4.43;;;23.90;1.00;;;;;;4993878;28;20646;-89
2022/09/11 18:38:00;;;;;;;5.77;4.57;;;23.90;1.00;;;;;;5006984;28;20202;-88
2022/09/11 18:40:27;;;;;;;5.57;4.90;;;23.60;1.00;;;;;;5005538;28;20178;-88
2022/09/11 18:42:54;;;;;;;5.63;5.00;;;23.80;1.00;;;;;;4986450;28;20194;-89
2022/09/11 18:45:20;;;;;;;6.70;4.77;;;23.80;1.00;;;;;;5007301;28;20635;-88
2022/09/11 18:47:53;;;;;;;6.57;4.77;;;23.70;1.00;;;;;;5010193;28;20190;-89
2022/09/11 18:50:22;;;;;;;7.47;4.63;;;23.50;1.00;;;;;;5009375;28;20166;-87
2022/09/11 18:52:50;;;;;;;6.57;4.83;;;23.30;1.00;;;;;;5015810;28;20190;-88
2022/09/11 18:55:19;;;;;;;5.17;4.17;;;23.30;1.00;;;;;;5018409;28;20197;-89
2022/09/11 18:57:52;;;;;;;5.63;4.50;;;23.30;1.00;;;;;;5031214;28;20221;-88
2022/09/11 19:00:18;;;;;;;5.67;4.23;;;23.40;1.00;;;;;;4992689;28;20197;-90
2022/09/11 19:02:53;;;;;;;6.27;4.63;;;23.30;1.00;;;;;;5015573;28;20189;-88
2022/09/11 19:05:28;;;;;;;7.63;4.70;;;23.20;1.00;;;;;;5013702;28;20182;-92
2022/09/11 19:07:57;;;;;;;6.60;4.40;;;23.10;1.00;;;;;;5010149;28;20186;-91
2022/09/11 19:10:24;;;;;;;7.77;4.30;;;23.20;1.00;;;;;;5027124;28;20162;-89
2022/09/11 19:12:53;;;;;;;5.07;4.40;;;23.30;1.00;;;;;;5014399;28;20233;-90
2022/09/11 19:15:19;;;;;;;5.47;3.80;;;23.20;1.00;;;;;;5011813;28;20182;-89
2022/09/11 19:17:50;;;;;;;5.87;4.60;;;23.20;1.00;;;;;;4995057;28;20264;-90
2022/09/11 19:20:18;;;;;;;7.00;4.77;;;23.10;1.00;;;;;;5004675;28;20179;-91
2022/09/11 19:22:46;;;;;;;6.37;4.97;;;23.10;1.00;;;;;;5009574;28;20190;-91
2022/09/11 19:25:17;;;;;;;8.00;4.73;;;23.00;1.00;;;;;;4994406;28;20178;-91
2022/09/11 19:27:44;;;;;;;6.17;4.83;;;23.00;1.00;;;;;;5007433;28;20190;-91
2022/09/11 19:30:12;;;;;;;6.20;4.43;;;22.90;1.00;;;;;;5007014;28;20170;-91
2022/09/11 19:32:40;;;;;;;9.07;4.90;;;23.00;1.00;;;;;;5006879;28;20232;-91
2022/09/11 19:35:06;;;;;;;4.97;4.17;;;22.90;1.00;;;;;;5002176;28;20174;-90
2022/09/11 19:37:32;;;;;;;4.53;3.87;;;22.60;1.00;;;;;;5001999;28;20206;-90
2022/09/11 19:39:59;;;;;;;5.07;4.23;;;22.40;1.00;;;;;;5019766;28;20205;-90
2022/09/11 19:42:28;;;;;;;6.87;5.00;;;22.30;1.00;;;;;;5001495;28;20220;-91
2022/09/11 19:44:53;;;;;;;10.23;6.20;;;22.20;1.00;;;;;;4997825;28;20183;-93
2022/09/11 19:47:23;;;;;;;6.30;5.63;;;22.10;1.00;;;;;;5001779;28;20208;-91
2022/09/11 19:49:50;;;;;;;6.73;5.07;;;22.30;1.00;;;;;;5011139;28;20190;-89
2022/09/11 19:52:16;;;;;;;7.33;4.87;;;22.10;1.00;;;;;;5020710;28;20348;-91
2022/09/11 19:54:43;;;;;;;7.40;5.13;;;22.30;1.00;;;;;;5007488;28;20193;-88
2022/09/11 19:57:08;;;;;;;5.97;4.70;;;22.20;1.00;;;;;;5001795;28;20194;-87
2022/09/11 19:59:35;;;;;;;5.47;4.93;;;22.30;1.00;;;;;;5006738;28;20530;-88
2022/09/11 20:02:01;;;;;;;6.43;5.30;;;22.30;1.00;;;;;;5006120;28;20186;-90
2022/09/11 20:04:28;;;;;;;5.60;4.80;;;22.30;1.00;;;;;;5036002;28;20178;-88
2022/09/11 20:06:54;;;;;;;6.63;5.20;;;22.40;1.00;;;;;;5022137;28;20190;-88
2022/09/11 20:09:21;;;;;;;6.83;4.87;;;22.40;1.00;;;;;;5005673;28;20198;-88
2022/09/11 20:11:49;;;;;;;6.60;4.73;;;22.40;1.00;;;;;;5006208;28;20587;-88
2022/09/11 20:14:16;;;;;;;7.47;5.00;;;22.40;1.00;;;;;;5000689;28;20194;-88
2022/09/11 20:16:42;;;;;;;8.17;5.33;;;22.40;1.00;;;;;;5020274;28;20253;-88
2022/09/11 20:19:10;;;;;;;5.40;4.70;;;22.40;1.00;;;;;;5005195;28;20228;-88
2022/09/11 20:21:37;;;;;;;6.17;5.07;;;22.40;1.00;;;;;;5001950;28;20190;-89
2022/09/11 20:24:05;;;;;;;7.10;5.30;;;22.40;1.00;;;;;;5016881;28;20182;-89
2022/09/11 20:26:32;;;;;;;9.07;6.47;;;22.20;1.00;;;;;;5027449;28;20181;-87
2022/09/11 20:29:02;;;;;;;9.40;5.73;;;22.20;1.00;;;;;;5038172;28;20191;-88
2022/09/11 20:31:31;;;;;;;8.07;5.40;;;22.10;1.00;;;;;;5022289;28;20253;-89
2022/09/11 20:33:57;;;;;;;7.20;4.63;;;22.00;1.00;;;;;;5027072;28;20224;-87
2022/09/11 20:36:23;;;;;;;8.50;5.10;;;21.80;1.00;;;;;;5010053;28;20186;-90
2022/09/11 20:38:53;;;;;;;7.30;4.97;;;21.80;1.00;;;;;;5009114;28;20210;-90
2022/09/11 20:41:22;;;;;;;7.73;4.90;;;21.80;1.00;;;;;;5006569;28;20187;-88
2022/09/11 20:43:48;;;;;;;6.30;5.47;;;21.80;1.00;;;;;;5004494;28;20194;-90
2022/09/11 20:46:17;;;;;;;8.07;6.00;;;21.90;1.00;;;;;;5000069;28;20226;-89
2022/09/11 20:48:48;;;;;;;7.97;5.90;;;21.90;1.00;;;;;;5001661;28;20193;-89
2022/09/11 20:51:18;;;;;;;6.63;5.40;;;22.00;1.00;;;;;;5001587;28;20184;-88
2022/09/11 20:53:47;;;;;;;7.50;5.40;;;22.00;1.00;;;;;;5002992;28;20192;-88
2022/09/11 20:56:15;;;;;;;7.90;5.70;;;22.00;1.00;;;;;;5004692;28;20554;-91
2022/09/11 20:58:43;;;;;;;8.47;6.77;;;22.00;1.00;;;;;;5000867;28;20189;-88
2022/09/11 21:01:12;;;;;;;7.17;6.47;;;21.90;1.00;;;;;;5017745;28;20186;-88
2022/09/11 21:03:43;;;;;;;9.93;7.40;;;21.70;1.00;;;;;;5000241;28;20193;-89
2022/09/11 21:06:08;;;;;;;7.23;6.07;;;21.60;1.00;;;;;;5000394;28;20194;-89
2022/09/11 21:08:35;;;;;;;6.67;5.97;;;21.60;1.00;;;;;;5000555;28;20216;-87
2022/09/11 21:11:05;;;;;;;7.07;5.87;;;21.30;1.00;;;;;;5000237;28;20196;-89
2022/09/11 21:13:38;;;;;;;8.53;5.50;;;21.00;1.00;;;;;;5000687;28;20304;-89
2022/09/11 21:16:07;;;;;;;6.67;5.70;;;20.90;1.00;;;;;;5002110;28;20217;-90
2022/09/11 21:18:33;;;;;;;6.67;5.47;;;20.80;1.00;;;;;;4996698;28;20546;-89
2022/09/11 21:20:59;;;;;;;6.30;5.47;;;20.70;1.00;;;;;;4998700;28;20182;-88
2022/09/11 21:23:24;;;;;;;7.33;5.30;;;20.60;3.40;;;;;;5001013;28;20190;-87
2022/09/11 21:25:50;;;;;;;5.97;5.37;;;20.50;8.50;;;;;;5000013;28;20200;-88
2022/09/11 21:28:16;;;;;;;8.30;6.17;;;20.50;9.90;;;;;;5000088;28;20192;-89
2022/09/11 21:30:43;;;;;;;6.43;5.07;;;20.50;10.20;;;;;;5001829;28;20194;-88
2022/09/11 21:33:09;;;;;;;6.27;5.50;;;20.60;8.30;;;;;;5003513;28;20430;-88
2022/09/11 21:35:36;;;;;;;6.57;5.93;;;20.80;4.60;;;;;;5016799;28;20197;-88
2022/09/11 21:38:02;;;;;;;9.33;6.23;;;20.80;1.90;;;;;;5019133;28;20304;-89
2022/09/11 21:40:28;;;;;;;5.80;5.20;;;20.70;3.10;;;;;;5017955;28;20216;-88
2022/09/11 21:42:53;;;;;;;7.50;5.83;;;20.80;2.40;;;;;;5037853;28;20182;-86
2022/09/11 21:45:20;;;;;;;6.63;6.00;;;20.80;2.30;;;;;;5017961;28;20193;-88
2022/09/11 21:47:52;;;;;;;6.53;5.93;;;20.90;1.00;;;;;;4994280;28;20218;-87
2022/09/11 21:50:21;;;;;;;8.27;6.03;;;20.90;1.00;;;;;;4981990;28;20252;-88
2022/09/11 21:53:37;;;;;;;7.37;6.13;;;20.90;1.00;;;;;;4980509;28;20209;-89
2022/09/11 21:56:04;;;;;;;7.57;5.80;;;20.90;1.00;;;;;;5012551;28;20178;-88
2022/09/11 21:58:30;;;;;;;8.90;6.10;;;20.90;1.00;;;;;;4995495;28;20221;-86
2022/09/11 22:01:01;;;;;;;6.43;5.83;;;20.90;1.70;;;;;;4998889;28;20173;-87
2022/09/11 22:03:27;;;;;;;8.47;6.33;;;21.00;1.40;;;;;;5000912;28;20194;-88
2022/09/11 22:05:54;;;;;;;7.03;6.33;;;20.90;1.10;;;;;;4999928;28;20202;-88
2022/09/11 22:08:20;;;;;;;7.50;6.80;;;21.00;1.00;;;;;;4995532;28;20197;-87
2022/09/11 22:10:49;;;;;;;7.40;6.37;;;20.90;2.20;;;;;;4983328;28;20233;-88
2022/09/11 22:13:18;;;;;;;7.03;6.20;;;20.90;3.20;;;;;;5000922;28;20217;-88
2022/09/11 22:15:48;;;;;;;9.33;7.43;;;20.80;6.10;;;;;;5000078;28;20194;-88
2022/09/11 22:18:15;;;;;;;7.60;6.90;;;20.90;4.80;;;;;;4995062;28;20193;-87
2022/09/11 22:20:41;;;;;;;8.77;7.03;;;20.90;3.00;;;;;;4995170;28;20170;-87
2022/09/11 22:23:12;;;;;;;7.90;7.10;;;20.90;4.80;;;;;;4985781;28;20623;-88
2022/09/11 22:29:03;;;;;;;9.27;7.70;;;20.80;8.80;;;;;;4996041;28;20604;-89
2022/09/11 22:31:29;;;;;;;8.93;7.77;;;20.80;7.80;;;;;;4978820;28;20180;-88
2022/09/11 22:33:56;;;;;;;9.30;8.10;;;20.70;11.70;;;;;;4978229;28;20244;-88
2022/09/11 22:36:24;;;;;;;8.77;8.00;;;20.50;16.70;;;;;;4978633;28;20650;-88
2022/09/11 22:38:50;;;;;;;10.07;8.10;;;20.40;20.40;;;;;;4978159;28;20283;-89
2022/09/11 22:41:17;;;;;;;9.50;7.93;;;20.30;23.30;;;;;;4978217;28;20769;-88
2022/09/11 22:43:44;;;;;;;10.83;8.33;;;20.30;24.50;;;;;;4978484;28;20216;-90
2022/09/11 22:46:09;;;;;;;10.40;7.87;;;20.10;27.50;;;;;;4978413;28;20248;-89
2022/09/11 22:48:35;;;;;;;9.90;8.10;;;20.10;28.90;;;;;;4977938;28;20216;-88
2022/09/11 22:51:01;;;;;;;8.40;7.57;;;20.20;30.50;;;;;;4979005;28;20180;-89
2022/09/11 22:53:31;;;;;;;8.87;7.73;;;20.10;32.10;;;;;;4978461;28;20353;-88
2022/09/11 22:55:57;;;;;;;10.97;8.23;;;20.10;31.90;;;;;;4977942;28;20182;-91
2022/09/11 22:58:23;;;;;;;9.27;7.83;;;20.20;31.20;;;;;;4978557;28;20185;-91
2022/09/11 23:00:52;;;;;;;9.53;7.90;;;20.10;31.40;;;;;;4978645;28;20180;-91
2022/09/11 23:03:18;;;;;;;9.53;8.57;;;20.20;31.60;;;;;;4979926;28;20196;-90
2022/09/11 23:08:32;;;;;;;11.63;8.37;;;20.10;32.00;;;;;;4996695;28;20325;-91
2022/09/11 23:11:00;;;;;;;10.03;8.97;;;20.20;31.00;;;;;;4979769;28;20230;-91
2022/09/11 23:13:27;;;;;;;10.50;9.37;;;20.20;28.60;;;;;;4979717;28;20219;-90
2022/09/11 23:15:55;;;;;;;11.17;9.97;;;20.20;29.20;;;;;;4979765;28;20177;-91
2022/09/11 23:18:21;;;;;;;10.07;9.07;;;20.30;28.60;;;;;;4978593;28;20191;-90
2022/09/11 23:20:55;;;;;;;12.50;9.20;;;20.20;30.10;;;;;;4978673;28;20706;-90
2022/09/11 23:23:21;;;;;;;10.40;9.13;;;20.10;30.60;;;;;;4977706;28;20185;-90
2022/09/11 23:25:47;;;;;;;9.77;8.77;;;20.10;31.20;;;;;;4981158;28;20235;-90
2022/09/11 23:28:12;;;;;;;9.83;8.77;;;20.10;34.20;;;;;;4981161;28;20193;-90
2022/09/11 23:30:39;;;;;;;10.13;9.00;;;19.90;36.50;;;;;;4981908;28;20279;-90
2022/09/11 23:33:09;;;;;;;10.67;9.40;;;19.90;38.70;;;;;;4983373;28;20715;-90
2022/09/11 23:35:39;;;;;;;10.97;9.33;;;19.80;40.00;;;;;;5003599;28;20192;-90
2022/09/11 23:38:05;;;;;;;10.50;9.40;;;19.80;40.90;;;;;;4987679;28;20207;-90
2022/09/11 23:40:32;;;;;;;10.83;9.73;;;19.80;41.00;;;;;;4984986;28;20190;-90
2022/09/11 23:42:57;;;;;;;11.60;9.50;;;19.80;41.40;;;;;;4982173;28;20541;-90
2022/09/11 23:45:24;;;;;;;11.30;9.60;;;19.80;41.00;;;;;;4982369;28;20211;-90
2022/09/11 23:47:49;;;;;;;10.33;9.27;;;19.90;40.50;;;;;;4983496;28;20647;-91
2022/09/11 23:50:16;;;;;;;11.63;9.33;;;19.90;40.40;;;;;;4986277;28;20189;-90
2022/09/11 23:52:41;;;;;;;9.57;8.57;;;19.80;41.30;;;;;;4986096;28;20227;-90
2022/09/11 23:55:07;;;;;;;9.60;8.70;;;19.80;41.20;;;;;;4981306;28;20255;-90
2022/09/11 23:57:34;;;;;;;10.67;8.67;;;19.80;41.90;;;;;;4982412;28;20185;-89
